createdAt,value
2022-10-18T00:01:50.393Z,4.38
2022-10-18T00:04:36.574Z,8.63
2022-10-18T00:07:22.829Z,12.85
2022-10-18T00:10:10.546Z,5.78
2022-10-18T00:12:57.014Z,4.35
2022-10-18T00:15:49.893Z,7.60
2022-10-18T00:18:37.832Z,8.15
2022-10-18T00:21:26.138Z,8.13
2022-10-18T00:24:12.429Z,5.50
2022-10-18T00:26:58.986Z,4.75
2022-10-18T00:29:45.387Z,9.05
2022-10-18T00:32:32.358Z,7.47
2022-10-18T00:35:20.217Z,4.63
2022-10-18T00:38:06.531Z,8.95
2022-10-18T00:40:53.205Z,8.85
2022-10-18T00:43:54.115Z,7.60
2022-10-18T00:46:42.038Z,5.43
2022-10-18T00:49:32.075Z,8.07
2022-10-18T00:52:23.578Z,7.82
2022-10-18T00:55:11.245Z,8.35
2022-10-18T00:57:58.256Z,9.50
2022-10-18T01:00:44.788Z,7.38
2022-10-18T01:03:31.686Z,5.15
2022-10-18T01:06:17.920Z,15.50
2022-10-18T01:09:13.028Z,7.93
2022-10-18T01:12:12.900Z,7.80
2022-10-18T01:15:06.894Z,13.38
2022-10-18T01:18:02.678Z,7.82
2022-10-18T01:21:09.005Z,7.20
2022-10-18T01:24:21.461Z,9.07
2022-10-18T01:27:42.636Z,17.23
2022-10-18T01:30:44.213Z,10.65
2022-10-18T01:33:37.044Z,7.78
2022-10-18T01:36:26.885Z,7.80
2022-10-18T01:39:17.561Z,9.75
2022-10-18T01:42:07.740Z,11.40
2022-10-18T01:44:55.362Z,12.75
2022-10-18T01:47:45.390Z,9.55
2022-10-18T01:50:33.021Z,11.38
2022-10-18T01:53:37.296Z,10.52
2022-10-18T01:56:36.268Z,10.52
2022-10-18T01:59:34.368Z,11.25
2022-10-18T02:02:34.186Z,10.52
2022-10-18T02:05:29.572Z,10.88
2022-10-18T02:08:23.732Z,12.05
2022-10-18T02:11:12.425Z,11.32
2022-10-18T02:14:05.205Z,11.27
2022-10-18T02:16:54.785Z,15.40
2022-10-18T02:19:44.242Z,18.35
2022-10-18T02:22:34.578Z,19.58
2022-10-18T02:25:24.741Z,12.60
2022-10-18T02:28:11.187Z,15.73
2022-10-18T02:31:04.775Z,12.27
2022-10-18T02:33:56.674Z,12.57
2022-10-18T02:36:47.177Z,14.02
2022-10-18T02:39:37.718Z,13.13
2022-10-18T02:42:24.261Z,14.05
2022-10-18T02:45:11.936Z,15.13
2022-10-18T02:47:58.325Z,16.20
2022-10-18T02:50:44.737Z,15.27
2022-10-18T02:53:30.976Z,17.15
2022-10-18T02:56:19.020Z,15.15
2022-10-18T02:59:07.278Z,13.90
2022-10-18T03:01:53.888Z,14.50
2022-10-18T03:04:40.314Z,13.23
2022-10-18T03:07:26.861Z,14.27
2022-10-18T03:10:13.060Z,16.17
2022-10-18T03:13:01.178Z,15.15
2022-10-18T03:15:48.187Z,16.88
2022-10-18T03:18:34.694Z,13.30
2022-10-18T03:21:20.939Z,14.77
2022-10-18T03:24:07.931Z,18.20
2022-10-18T03:26:54.393Z,16.02
2022-10-18T03:29:42.404Z,14.45
2022-10-18T03:32:29.063Z,16.65
2022-10-18T03:35:15.308Z,14.68
2022-10-18T03:38:01.597Z,17.23
2022-10-18T03:40:48.353Z,18.17
2022-10-18T03:43:34.636Z,18.75
2022-10-18T03:46:22.581Z,17.02
2022-10-18T03:49:08.911Z,17.48
2022-10-18T03:51:55.289Z,19.48
2022-10-18T03:54:41.872Z,21.25
2022-10-18T03:57:28.465Z,21.40
2022-10-18T04:00:14.879Z,19.50
2022-10-18T04:03:02.701Z,20.02
2022-10-18T04:05:49.658Z,20.55
2022-10-18T04:08:36.082Z,18.45
2022-10-18T04:11:22.603Z,27.55
2022-10-18T04:14:09.339Z,25.60
2022-10-18T04:16:55.538Z,18.83
2022-10-18T04:19:43.405Z,19.23
2022-10-18T04:22:29.863Z,23.38
2022-10-18T04:25:16.814Z,24.02
2022-10-18T04:28:04.615Z,20.80
2022-10-18T04:30:52.381Z,21.13
2022-10-18T04:33:39.529Z,20.17
2022-10-18T04:36:27.406Z,21.98
2022-10-18T04:39:13.858Z,22.20
2022-10-18T04:42:00.259Z,23.77
2022-10-18T04:44:46.417Z,24.58
2022-10-18T04:47:33.131Z,25.10
2022-10-18T04:50:19.667Z,26.48
2022-10-18T04:53:07.329Z,26.58
2022-10-18T04:55:54.122Z,24.23
2022-10-18T04:58:40.762Z,32.50
2022-10-18T05:01:27.211Z,22.35
2022-10-18T05:04:14.078Z,23.10
2022-10-18T05:07:00.745Z,21.55
2022-10-18T05:09:48.594Z,24.92
2022-10-18T05:12:35.166Z,24.25
2022-10-18T05:15:21.567Z,22.65
2022-10-18T05:18:07.843Z,21.55
2022-10-18T05:20:54.088Z,24.13
2022-10-18T05:23:41.090Z,23.60
2022-10-18T05:26:29.282Z,24.27
2022-10-18T05:29:15.556Z,27.98
2022-10-18T05:32:02.093Z,24.65
2022-10-18T05:34:48.622Z,27.48
2022-10-18T05:37:35.070Z,26.15
2022-10-18T05:40:21.345Z,26.40
2022-10-18T05:43:09.051Z,27.50
2022-10-18T05:45:55.694Z,25.02
2022-10-18T05:48:41.930Z,28.70
2022-10-18T05:51:28.449Z,28.30
2022-10-18T05:54:15.145Z,28.88
2022-10-18T05:57:01.409Z,28.67
2022-10-18T05:59:49.295Z,25.65
2022-10-18T06:02:35.582Z,27.30
2022-10-18T06:05:21.914Z,24.50
2022-10-18T06:08:10.304Z,21.00
2022-10-18T06:10:57.454Z,18.63
2022-10-18T06:13:45.587Z,20.95
2022-10-18T06:16:33.377Z,20.25
2022-10-18T06:19:19.965Z,20.13
2022-10-18T06:22:06.209Z,21.67
2022-10-18T06:24:57.121Z,21.17
2022-10-18T06:27:44.030Z,20.27
2022-10-18T06:30:30.404Z,20.90
2022-10-18T06:33:17.924Z,22.15
2022-10-18T06:36:07.970Z,20.55
2022-10-18T06:38:56.323Z,24.42
2022-10-18T06:41:42.565Z,20.67
2022-10-18T06:44:29.117Z,21.38
2022-10-18T06:47:15.546Z,22.30
2022-10-18T06:50:03.457Z,29.33
2022-10-18T06:52:51.169Z,26.20
2022-10-18T06:55:37.664Z,20.63
2022-10-18T06:58:23.734Z,25.95
2022-10-18T07:01:12.918Z,20.05
2022-10-18T07:03:59.023Z,23.25
2022-10-18T07:06:46.902Z,22.98
2022-10-18T07:09:33.010Z,22.08
2022-10-18T07:12:19.497Z,19.10
2022-10-18T07:15:09.297Z,20.75
2022-10-18T07:17:56.241Z,20.88
2022-10-18T07:20:42.470Z,19.63
2022-10-18T07:23:30.593Z,17.05
2022-10-18T07:26:19.363Z,14.70
2022-10-18T07:29:08.121Z,18.80
2022-10-18T07:31:54.703Z,15.45
2022-10-18T07:34:41.458Z,14.57
2022-10-18T07:37:29.400Z,19.20
2022-10-18T07:40:17.962Z,17.23
2022-10-18T07:43:05.119Z,15.23
2022-10-18T07:45:53.290Z,17.70
2022-10-18T07:48:39.892Z,16.92
2022-10-18T07:51:27.746Z,18.73
2022-10-18T07:54:14.102Z,15.80
2022-10-18T07:57:01.955Z,17.23
2022-10-18T07:59:48.382Z,15.52
2022-10-18T08:02:34.703Z,12.23
2022-10-18T08:05:21.230Z,12.02
2022-10-18T08:08:08.215Z,10.32
2022-10-18T08:10:55.106Z,9.45
2022-10-18T08:13:43.139Z,9.95
2022-10-18T08:19:18.524Z,12.25
2022-10-18T08:22:04.982Z,12.15
2022-10-18T08:24:51.368Z,13.35
2022-10-18T08:27:37.843Z,13.68
2022-10-18T08:30:25.800Z,10.95
2022-10-18T08:33:12.145Z,10.38
2022-10-18T08:36:00.181Z,7.82
2022-10-18T08:38:46.670Z,6.07
2022-10-18T08:42:09.714Z,6.95
2022-10-18T08:44:57.030Z,6.13
2022-10-18T08:47:49.062Z,5.10
2022-10-18T08:50:38.657Z,5.10
2022-10-18T08:53:30.698Z,5.35
2022-10-18T08:56:21.609Z,7.20
2022-10-18T08:59:10.926Z,6.55
2022-10-18T09:02:05.466Z,5.43
2022-10-18T09:05:01.189Z,5.63
2022-10-18T09:08:12.539Z,5.38
2022-10-18T09:11:10.465Z,4.10
2022-10-18T09:14:06.837Z,5.93
2022-10-18T09:17:05.017Z,5.78
2022-10-18T09:20:04.053Z,3.58
2022-10-18T09:22:54.972Z,4.88
2022-10-18T09:25:46.071Z,3.70
2022-10-18T09:28:48.641Z,4.35
2022-10-18T09:31:45.945Z,5.80
2022-10-18T09:34:39.875Z,5.05
2022-10-18T09:37:30.171Z,3.58
2022-10-18T09:40:20.328Z,4.03
2022-10-18T09:43:13.090Z,3.78
2022-10-18T09:45:59.702Z,4.28
2022-10-18T09:48:50.504Z,3.80
2022-10-18T09:51:40.025Z,3.08
2022-10-18T09:54:33.966Z,3.13
2022-10-18T09:57:27.472Z,3.20
2022-10-18T10:00:17.992Z,2.58
2022-10-18T10:03:11.753Z,7.32
2022-10-18T10:06:17.450Z,3.67
2022-10-18T10:09:08.405Z,2.75
2022-10-18T10:11:56.967Z,3.67
2022-10-18T10:14:45.181Z,2.97
2022-10-18T10:17:34.493Z,3.08
2022-10-18T10:20:23.877Z,2.50
2022-10-18T10:26:24.409Z,2.42
2022-10-18T10:29:44.990Z,2.67
2022-10-18T10:32:45.219Z,3.53
2022-10-18T10:35:53.619Z,4.13
2022-10-18T10:38:40.765Z,3.50
2022-10-18T10:41:27.539Z,3.25
2022-10-18T10:44:17.683Z,2.80
2022-10-18T10:47:04.697Z,2.30
2022-10-18T10:49:52.567Z,3.28
2022-10-18T10:52:41.110Z,3.40
2022-10-18T10:55:35.564Z,3.00
2022-10-18T10:58:23.281Z,3.42
2022-10-18T11:01:24.817Z,3.42
2022-10-18T11:04:26.461Z,2.95
2022-10-18T11:07:22.573Z,3.08
2022-10-18T11:10:14.703Z,7.43
2022-10-18T11:13:05.308Z,5.38
2022-10-18T11:15:56.413Z,5.90
2022-10-18T11:18:47.246Z,4.57
2022-10-18T11:21:34.097Z,5.13
2022-10-18T11:24:22.690Z,3.55
2022-10-18T11:27:15.964Z,3.60
2022-10-18T11:30:22.373Z,4.32
2022-10-18T11:33:24.826Z,5.15
2022-10-18T11:36:21.915Z,9.05
2022-10-18T11:39:15.945Z,6.32
2022-10-18T11:42:12.503Z,4.90
2022-10-18T11:45:12.191Z,5.38
2022-10-18T11:48:06.750Z,6.45
2022-10-18T11:51:01.004Z,7.57
2022-10-18T11:54:00.836Z,5.28
2022-10-18T11:56:56.202Z,6.68
2022-10-18T11:59:55.773Z,6.82
2022-10-18T12:02:56.067Z,6.47
2022-10-18T12:05:45.643Z,10.90
2022-10-18T12:08:37.107Z,6.85
2022-10-18T12:11:29.052Z,8.30
2022-10-18T12:14:22.112Z,7.05
2022-10-18T12:17:41.809Z,9.95
2022-10-18T12:20:30.374Z,10.00
2022-10-18T12:23:19.119Z,10.02
2022-10-18T12:26:08.368Z,9.98
2022-10-18T12:29:07.220Z,12.77
2022-10-18T12:31:56.989Z,14.68
2022-10-18T12:34:47.562Z,10.75
2022-10-18T12:37:41.308Z,13.45
2022-10-18T12:40:37.237Z,10.13
2022-10-18T12:43:26.682Z,9.45
2022-10-18T12:46:14.007Z,7.28
2022-10-18T12:49:05.607Z,7.40
2022-10-18T12:51:55.063Z,8.40
2022-10-18T12:54:41.435Z,7.72
2022-10-18T12:58:17.705Z,7.15
2022-10-18T13:01:07.810Z,7.15
2022-10-18T13:03:56.198Z,7.30
2022-10-18T13:07:19.564Z,6.85
2022-10-18T13:10:35.251Z,6.72
2022-10-18T13:13:54.264Z,5.30
2022-10-18T13:16:47.110Z,5.13
2022-10-18T13:19:40.269Z,5.07
2022-10-18T13:22:43.423Z,5.70
2022-10-18T13:25:36.021Z,4.90
2022-10-18T13:28:29.680Z,5.70
2022-10-18T13:31:23.538Z,4.70
2022-10-18T13:34:27.881Z,5.68
2022-10-18T13:37:23.988Z,7.38
2022-10-18T13:40:24.538Z,12.77
2022-10-18T13:43:45.505Z,6.63
2022-10-18T13:47:20.384Z,5.60
2022-10-18T13:50:38.790Z,4.10
2022-10-18T13:53:51.766Z,5.97
2022-10-18T13:56:56.774Z,4.03
2022-10-18T14:00:18.973Z,4.28
2022-10-18T14:03:55.587Z,6.60
2022-10-18T14:06:41.626Z,4.78
2022-10-18T14:09:44.528Z,4.72
2022-10-18T14:12:38.902Z,4.55
2022-10-18T14:15:27.150Z,4.07
2022-10-18T14:18:17.124Z,5.15
2022-10-18T14:21:13.718Z,3.85
2022-10-18T14:24:02.863Z,7.85
2022-10-18T14:26:48.949Z,6.65
2022-10-18T14:29:35.397Z,5.78
2022-10-18T14:32:27.181Z,4.65
2022-10-18T14:35:32.124Z,6.65
2022-10-18T14:38:22.987Z,5.80
2022-10-18T14:41:16.895Z,4.40
2022-10-18T14:44:19.327Z,5.13
2022-10-18T14:47:16.115Z,5.57
2022-10-18T14:50:02.957Z,7.28
2022-10-18T14:52:49.741Z,8.50
2022-10-18T14:55:38.886Z,7.50
2022-10-18T14:58:26.598Z,6.22
2022-10-18T15:01:17.632Z,8.38
2022-10-18T15:04:07.810Z,8.18
2022-10-18T15:06:55.447Z,7.95
2022-10-18T15:09:43.063Z,7.97
2022-10-18T15:12:40.854Z,10.30
2022-10-18T15:15:40.138Z,5.57
2022-10-18T15:18:28.451Z,5.68
2022-10-18T15:21:23.525Z,6.95
2022-10-18T15:24:30.475Z,9.18
2022-10-18T15:27:27.032Z,6.43
2022-10-18T15:30:20.549Z,6.68
2022-10-18T15:33:10.090Z,10.40
2022-10-18T15:35:56.806Z,7.72
2022-10-18T15:38:46.296Z,10.70
2022-10-18T15:41:45.646Z,11.50
2022-10-18T15:44:34.810Z,8.82
2022-10-18T15:47:22.927Z,10.65
2022-10-18T15:50:37.243Z,9.70
2022-10-18T15:53:47.487Z,12.45
2022-10-18T15:56:34.645Z,11.82
2022-10-18T15:59:26.716Z,13.57
2022-10-18T16:02:15.165Z,20.50
2022-10-18T16:05:02.617Z,16.65
2022-10-18T16:07:53.942Z,9.88
2022-10-18T16:10:40.180Z,10.38
2022-10-18T16:13:27.398Z,12.18
2022-10-18T16:16:16.949Z,10.05
2022-10-18T16:19:03.242Z,11.20
2022-10-18T16:21:50.085Z,11.73
2022-10-18T16:24:37.917Z,9.50
2022-10-18T16:27:24.958Z,13.75
2022-10-18T16:30:15.135Z,13.82
2022-10-18T16:33:01.367Z,19.13
2022-10-18T16:35:47.933Z,16.55
2022-10-18T16:38:37.111Z,14.23
2022-10-18T16:41:25.452Z,14.20
2022-10-18T16:44:11.848Z,11.85
2022-10-18T16:46:58.402Z,19.02
2022-10-18T16:49:45.095Z,14.60
2022-10-18T16:52:31.577Z,15.75
2022-10-18T16:55:21.457Z,12.40
2022-10-18T16:58:15.118Z,13.40
2022-10-18T17:01:04.112Z,12.15
2022-10-18T17:03:54.122Z,11.25
2022-10-18T17:06:40.411Z,16.17
2022-10-18T17:09:27.489Z,11.07
2022-10-18T17:12:13.787Z,13.32
2022-10-18T17:15:01.670Z,10.88
2022-10-18T17:17:49.845Z,11.32
2022-10-18T17:20:36.192Z,11.70
2022-10-18T17:23:22.893Z,14.55
2022-10-18T17:26:27.957Z,12.70
2022-10-18T17:29:15.816Z,16.58
2022-10-18T17:32:04.295Z,15.93
2022-10-18T17:34:50.849Z,19.98
2022-10-18T17:37:38.880Z,18.60
2022-10-18T17:40:27.839Z,14.88
2022-10-18T17:43:14.397Z,14.18
2022-10-18T17:46:00.642Z,14.70
2022-10-18T17:48:48.813Z,15.27
2022-10-18T17:51:35.520Z,19.42
2022-10-18T17:54:21.890Z,16.20
2022-10-18T17:57:08.318Z,18.35
2022-10-18T17:59:56.207Z,17.80
2022-10-18T18:02:43.516Z,20.55
2022-10-18T18:05:34.646Z,19.15
2022-10-18T18:08:20.950Z,22.13
2022-10-18T18:11:07.433Z,24.92
2022-10-18T18:13:55.713Z,28.05
2022-10-18T18:16:43.493Z,25.88
2022-10-18T18:19:29.742Z,27.02
2022-10-18T18:22:17.400Z,36.08
2022-10-18T18:25:03.658Z,32.08
2022-10-18T18:27:50.122Z,46.88
2022-10-18T18:30:39.829Z,38.30
2022-10-18T18:33:26.050Z,42.22
2022-10-18T18:36:13.118Z,32.40
2022-10-18T18:39:01.223Z,27.98
2022-10-18T18:41:49.515Z,25.92
2022-10-18T18:44:35.928Z,27.08
2022-10-18T18:47:23.421Z,25.52
2022-10-18T18:50:10.582Z,21.65
2022-10-18T18:52:58.879Z,26.80
2022-10-18T18:55:46.486Z,25.08
2022-10-18T18:58:33.609Z,20.05
2022-10-18T19:01:22.100Z,19.35
2022-10-18T19:04:09.833Z,21.58
2022-10-18T19:06:56.033Z,16.58
2022-10-18T19:09:44.417Z,16.38
2022-10-18T19:12:32.176Z,17.27
2022-10-18T19:15:19.525Z,16.55
2022-10-18T19:18:06.066Z,19.67
2022-10-18T19:20:52.373Z,20.42
2022-10-18T19:23:38.716Z,18.33
2022-10-18T19:26:31.917Z,16.83
2022-10-18T19:29:22.244Z,18.10
2022-10-18T19:32:12.006Z,16.38
2022-10-18T19:34:58.474Z,15.25
2022-10-18T19:37:44.890Z,19.85
2022-10-18T19:40:31.180Z,18.35
2022-10-18T19:43:17.488Z,18.45
2022-10-18T19:46:05.690Z,18.67
2022-10-18T19:48:53.998Z,17.77
2022-10-18T19:51:41.077Z,20.77
2022-10-18T19:54:29.418Z,19.45
2022-10-18T19:57:15.667Z,19.05
2022-10-18T20:00:03.477Z,19.00
2022-10-18T20:02:53.390Z,18.95
2022-10-18T20:05:39.887Z,19.57
2022-10-18T20:08:27.901Z,15.88
2022-10-18T20:11:17.070Z,20.15
2022-10-18T20:14:05.359Z,16.73
2022-10-18T20:16:51.634Z,21.30
2022-10-18T20:19:39.532Z,18.35
2022-10-18T20:22:25.862Z,17.98
2022-10-18T20:25:12.517Z,20.13
2022-10-18T20:27:58.583Z,20.80
2022-10-18T20:30:45.098Z,20.98
2022-10-18T20:33:32.003Z,21.00
2022-10-18T20:36:20.337Z,22.90
2022-10-18T20:39:07.708Z,23.00
2022-10-18T20:41:54.004Z,22.80
2022-10-18T20:44:43.241Z,24.93
2022-10-18T20:47:29.650Z,26.85
2022-10-18T20:50:15.947Z,20.27
2022-10-18T20:53:03.956Z,20.80
2022-10-18T20:55:50.836Z,20.27
2022-10-18T20:58:39.545Z,16.27
2022-10-18T21:01:28.039Z,16.83
2022-10-18T21:04:14.905Z,18.73
2022-10-18T21:07:01.364Z,21.47
2022-10-18T21:09:49.018Z,13.17
2022-10-18T21:12:35.557Z,19.37
2022-10-18T21:15:22.422Z,14.73
2022-10-18T21:18:08.805Z,16.63
2022-10-18T21:20:55.864Z,15.13
2022-10-18T21:23:42.680Z,14.87
2022-10-18T21:26:30.934Z,17.20
2022-10-18T21:29:22.011Z,19.40
2022-10-18T21:32:09.179Z,12.13
2022-10-18T21:34:55.385Z,16.17
2022-10-18T21:37:41.910Z,21.33
2022-10-18T21:40:28.491Z,15.70
2022-10-18T21:43:16.267Z,11.83
2022-10-18T21:46:02.660Z,13.20
2022-10-18T21:48:50.509Z,15.03
2022-10-18T21:51:37.537Z,13.60
2022-10-18T21:54:23.753Z,14.10
2022-10-18T21:57:10.026Z,13.97
2022-10-18T21:59:57.923Z,16.80
2022-10-18T22:02:44.350Z,19.00
2022-10-18T22:05:30.913Z,11.80
2022-10-18T22:08:17.190Z,16.07
2022-10-18T22:11:03.805Z,13.43
2022-10-18T22:13:50.614Z,17.07
2022-10-18T22:16:38.294Z,11.57
2022-10-18T22:19:24.429Z,14.70
2022-10-18T22:22:11.127Z,18.57
2022-10-18T22:24:58.044Z,12.27
2022-10-18T22:27:44.566Z,15.63
2022-10-18T22:30:30.862Z,14.30
2022-10-18T22:33:18.693Z,14.27
2022-10-18T22:36:04.905Z,15.97
2022-10-18T22:38:51.634Z,16.23
2022-10-18T22:41:38.332Z,11.40
2022-10-18T22:44:25.206Z,12.67
2022-10-18T22:47:11.733Z,11.67
2022-10-18T22:49:59.586Z,21.97
2022-10-18T22:52:45.743Z,13.53
2022-10-18T22:55:32.102Z,17.97
2022-10-18T22:58:19.037Z,12.03
2022-10-18T23:01:07.109Z,12.13
2022-10-18T23:03:54.083Z,14.03
2022-10-18T23:06:41.730Z,10.80
2022-10-18T23:09:28.149Z,15.63
2022-10-18T23:12:14.238Z,12.73
2022-10-18T23:15:00.619Z,15.30
2022-10-18T23:17:47.787Z,11.63
2022-10-18T23:20:34.248Z,11.77
2022-10-18T23:23:22.048Z,12.67
2022-10-18T23:26:10.358Z,15.70
2022-10-18T23:28:56.976Z,13.87
2022-10-18T23:31:43.584Z,9.80
2022-10-18T23:34:30.180Z,16.43
2022-10-18T23:37:16.345Z,15.70
2022-10-18T23:40:04.253Z,13.77
2022-10-18T23:42:50.845Z,12.57
2022-10-18T23:45:37.489Z,12.10
2022-10-18T23:48:23.562Z,15.53
2022-10-18T23:51:10.498Z,15.40
2022-10-18T23:53:57.041Z,12.27
2022-10-18T23:56:44.854Z,12.37
2022-10-18T23:59:31.721Z,10.07
